SWR1353 EPWA-LSZH
Flight info
| Callsign | SWR1353 |
|---|---|
| Flight time | 1h 53m |
| Altitude | 36000 |
| Route | SOXER DCT VAMPU N869 AGALU DCT TOMTI DCT ASTEL DCT OKG DCT AMOSA N869 TEDGO/N0449F350 T724 RILAX |
| Aircraft | A320/M-SDE3FGHIRWY/LB1 |
Departure
| Time | 2026-05-05 09:57 |
|---|---|
| Airport | Warsaw Chopin Airport (EPWA) |
Arrival
| Time | 2026-05-05 11:50 |
|---|---|
| Airport | Zürich Airport (LSZH) |
| Time | Latitude | Longitude | Altitude | Speed | Heading |
|---|---|---|---|---|---|
| 2026-05-05 09:07 | 52.17095 | 20.97071 | 362 ft | 0 kts | 68° |
| 2026-05-05 09:43 | 52.17090 | 20.97053 | 363 ft | 3 kts | 68° |
| 2026-05-05 09:43 | 52.17082 | 20.97022 | 362 ft | 3 kts | 68° |
| 2026-05-05 09:44 | 52.17075 | 20.96992 | 365 ft | 2 kts | 68° |
| 2026-05-05 09:44 | 52.17068 | 20.96967 | 362 ft | 3 kts | 53° |
| 2026-05-05 09:44 | 52.17055 | 20.96947 | 363 ft | 3 kts | 10° |
| 2026-05-05 09:44 | 52.17036 | 20.96948 | 361 ft | 3 kts | 340° |
| 2026-05-05 09:45 | 52.17024 | 20.96955 | 363 ft | 1 kts | 335° |
| 2026-05-05 09:45 | 52.17021 | 20.96957 | 362 ft | 0 kts | 335° |
| 2026-05-05 09:48 | 52.17022 | 20.96957 | 363 ft | 1 kts | 335° |
| 2026-05-05 09:48 | 52.17040 | 20.96942 | 361 ft | 5 kts | 329° |
| 2026-05-05 09:49 | 52.17035 | 20.96881 | 361 ft | 8 kts | 227° |
| 2026-05-05 09:49 | 52.16993 | 20.96815 | 362 ft | 9 kts | 227° |
| 2026-05-05 09:49 | 52.17012 | 20.96723 | 361 ft | 12 kts | 335° |
| 2026-05-05 09:49 | 52.17049 | 20.96695 | 361 ft | 0 kts | 332° |
| 2026-05-05 09:50 | 52.17054 | 20.96693 | 361 ft | 2 kts | 342° |
| 2026-05-05 09:50 | 52.17077 | 20.96715 | 366 ft | 5 kts | 58° |
| 2026-05-05 09:50 | 52.17045 | 20.96755 | 363 ft | 9 kts | 178° |
| 2026-05-05 09:50 | 52.16970 | 20.96765 | 364 ft | 13 kts | 152° |
| 2026-05-05 09:51 | 52.16888 | 20.96837 | 363 ft | 14 kts | 152° |
| 2026-05-05 09:51 | 52.16797 | 20.96916 | 361 ft | 16 kts | 152° |
| 2026-05-05 09:51 | 52.16696 | 20.97004 | 364 ft | 17 kts | 152° |
| 2026-05-05 09:51 | 52.16618 | 20.97084 | 362 ft | 8 kts | 115° |
| 2026-05-05 09:52 | 52.16626 | 20.97168 | 360 ft | 7 kts | 82° |
| 2026-05-05 09:52 | 52.16614 | 20.97232 | 362 ft | 5 kts | 123° |
| 2026-05-05 09:52 | 52.16597 | 20.97277 | 359 ft | 4 kts | 117° |
| 2026-05-05 09:52 | 52.16589 | 20.97315 | 362 ft | 3 kts | 107° |
| 2026-05-05 09:53 | 52.16584 | 20.97342 | 361 ft | 2 kts | 107° |
| 2026-05-05 09:53 | 52.16581 | 20.97358 | 363 ft | 1 kts | 109° |
| 2026-05-05 09:53 | 52.16579 | 20.97366 | 363 ft | 0 kts | 110° |
| 2026-05-05 09:53 | 52.16579 | 20.97367 | 363 ft | 0 kts | 110° |
| 2026-05-05 09:54 | 52.16577 | 20.97374 | 359 ft | 4 kts | 111° |
| 2026-05-05 09:54 | 52.16554 | 20.97451 | 362 ft | 9 kts | 117° |
| 2026-05-05 09:54 | 52.16522 | 20.97564 | 362 ft | 13 kts | 110° |
| 2026-05-05 09:54 | 52.16477 | 20.97705 | 361 ft | 15 kts | 121° |
| 2026-05-05 09:55 | 52.16436 | 20.97870 | 359 ft | 13 kts | 115° |
| 2026-05-05 09:55 | 52.16394 | 20.98021 | 360 ft | 16 kts | 114° |
| 2026-05-05 09:55 | 52.16346 | 20.98162 | 359 ft | 14 kts | 126° |
| 2026-05-05 09:55 | 52.16264 | 20.98254 | 358 ft | 15 kts | 186° |
| 2026-05-05 09:56 | 52.16234 | 20.98108 | 356 ft | 14 kts | 274° |
| 2026-05-05 09:56 | 52.16235 | 20.97957 | 354 ft | 12 kts | 271° |
| 2026-05-05 09:56 | 52.16257 | 20.97842 | 355 ft | 9 kts | 294° |
| 2026-05-05 09:56 | 52.16324 | 20.97609 | 363 ft | 54 kts | 293° |
| 2026-05-05 09:57 | 52.16580 | 20.96693 | 364 ft | 120 kts | 295° |
| 2026-05-05 09:57 | 52.16998 | 20.95174 | 391 ft | 169 kts | 294° |
| 2026-05-05 09:57 | 52.17512 | 20.93401 | 888 ft | 175 kts | 294° |
| 2026-05-05 09:57 | 52.18018 | 20.91573 | 1513 ft | 179 kts | 292° |
| 2026-05-05 09:58 | 52.18496 | 20.89720 | 2226 ft | 175 kts | 287° |
| 2026-05-05 09:58 | 52.18726 | 20.87818 | 2970 ft | 168 kts | 266° |
| 2026-05-05 09:58 | 52.18588 | 20.85856 | 3455 ft | 186 kts | 257° |
| 2026-05-05 09:58 | 52.18349 | 20.83677 | 3780 ft | 207 kts | 258° |
| 2026-05-05 09:59 | 52.18138 | 20.81206 | 4047 ft | 234 kts | 268° |
| 2026-05-05 09:59 | 52.18340 | 20.78429 | 4402 ft | 259 kts | 279° |
| 2026-05-05 09:59 | 52.18777 | 20.75512 | 5170 ft | 268 kts | 283° |
| 2026-05-05 09:59 | 52.19262 | 20.72559 | 6044 ft | 270 kts | 278° |
| 2026-05-05 10:00 | 52.19396 | 20.69530 | 6901 ft | 268 kts | 262° |
| 2026-05-05 10:00 | 52.18958 | 20.66596 | 7726 ft | 268 kts | 249° |
| 2026-05-05 10:00 | 52.18339 | 20.63721 | 8584 ft | 270 kts | 248° |
| 2026-05-05 10:00 | 52.17693 | 20.60834 | 9428 ft | 272 kts | 248° |
| 2026-05-05 10:01 | 52.17037 | 20.57930 | 10170 ft | 277 kts | 248° |
| 2026-05-05 10:01 | 52.16354 | 20.54905 | 10410 ft | 300 kts | 248° |
| 2026-05-05 10:01 | 52.15601 | 20.51554 | 10637 ft | 321 kts | 248° |
| 2026-05-05 10:01 | 52.14843 | 20.48077 | 11188 ft | 330 kts | 250° |
| 2026-05-05 10:02 | 52.14147 | 20.44551 | 11904 ft | 333 kts | 251° |
| 2026-05-05 10:02 | 52.13472 | 20.40933 | 12649 ft | 335 kts | 252° |
| 2026-05-05 10:02 | 52.12805 | 20.37289 | 13393 ft | 337 kts | 252° |
| 2026-05-05 10:02 | 52.12130 | 20.33627 | 14068 ft | 339 kts | 252° |
| 2026-05-05 10:03 | 52.11442 | 20.29943 | 14662 ft | 342 kts | 252° |
| 2026-05-05 10:03 | 52.10737 | 20.26218 | 15250 ft | 346 kts | 251° |
| 2026-05-05 10:03 | 52.10018 | 20.22457 | 15829 ft | 350 kts | 251° |
| 2026-05-05 10:03 | 52.09282 | 20.18653 | 16411 ft | 354 kts | 251° |
| 2026-05-05 10:04 | 52.08534 | 20.14810 | 16989 ft | 357 kts | 251° |
| 2026-05-05 10:04 | 52.07779 | 20.10932 | 17557 ft | 361 kts | 252° |
| 2026-05-05 10:04 | 52.07026 | 20.07054 | 18123 ft | 365 kts | 252° |
| 2026-05-05 10:04 | 52.06255 | 20.03082 | 18624 ft | 368 kts | 252° |
| 2026-05-05 10:05 | 52.05477 | 19.99093 | 19136 ft | 371 kts | 252° |
| 2026-05-05 10:05 | 52.04702 | 19.95128 | 19651 ft | 374 kts | 252° |
| 2026-05-05 10:05 | 52.03897 | 19.91064 | 20169 ft | 378 kts | 251° |
| 2026-05-05 10:05 | 52.03046 | 19.86998 | 20670 ft | 381 kts | 250° |
| 2026-05-05 10:06 | 52.02169 | 19.82973 | 21158 ft | 384 kts | 250° |
| 2026-05-05 10:06 | 52.01261 | 19.78881 | 21637 ft | 387 kts | 249° |
| 2026-05-05 10:06 | 52.00342 | 19.74752 | 22116 ft | 390 kts | 250° |
| 2026-05-05 10:06 | 51.99419 | 19.70583 | 22583 ft | 393 kts | 250° |
| 2026-05-05 10:07 | 51.98495 | 19.66392 | 23033 ft | 396 kts | 250° |
| 2026-05-05 10:07 | 51.97570 | 19.62174 | 23477 ft | 399 kts | 250° |
| 2026-05-05 10:07 | 51.96651 | 19.57962 | 23841 ft | 401 kts | 250° |
| 2026-05-05 10:07 | 51.95717 | 19.53682 | 24219 ft | 403 kts | 250° |
| 2026-05-05 10:08 | 51.94778 | 19.49392 | 24597 ft | 405 kts | 250° |
| 2026-05-05 10:08 | 51.93831 | 19.45082 | 24961 ft | 406 kts | 250° |
| 2026-05-05 10:08 | 51.92879 | 19.40754 | 25318 ft | 408 kts | 250° |
| 2026-05-05 10:08 | 51.91918 | 19.36400 | 25678 ft | 410 kts | 250° |
| 2026-05-05 10:09 | 51.90964 | 19.32094 | 26017 ft | 412 kts | 250° |
| 2026-05-05 10:09 | 51.89990 | 19.27722 | 26361 ft | 413 kts | 250° |
| 2026-05-05 10:09 | 51.89009 | 19.23330 | 26692 ft | 415 kts | 249° |
| 2026-05-05 10:09 | 51.88019 | 19.18916 | 27012 ft | 417 kts | 249° |
| 2026-05-05 10:10 | 51.87026 | 19.14496 | 27333 ft | 418 kts | 249° |
| 2026-05-05 10:10 | 51.86031 | 19.10057 | 27655 ft | 420 kts | 250° |
| 2026-05-05 10:10 | 51.85056 | 19.05644 | 27960 ft | 422 kts | 250° |
| 2026-05-05 10:10 | 51.84073 | 19.01139 | 28261 ft | 424 kts | 250° |
| 2026-05-05 10:11 | 51.83094 | 18.96629 | 28552 ft | 425 kts | 250° |
| 2026-05-05 10:11 | 51.82127 | 18.92165 | 28830 ft | 427 kts | 250° |
| 2026-05-05 10:11 | 51.81137 | 18.87621 | 29108 ft | 428 kts | 250° |
| 2026-05-05 10:11 | 51.80135 | 18.83055 | 29357 ft | 430 kts | 250° |
| 2026-05-05 10:12 | 51.79133 | 18.78533 | 29612 ft | 431 kts | 250° |
| 2026-05-05 10:12 | 51.78112 | 18.73938 | 29848 ft | 433 kts | 250° |
| 2026-05-05 10:12 | 51.77095 | 18.69351 | 30080 ft | 433 kts | 250° |
| 2026-05-05 10:12 | 51.76080 | 18.64783 | 30368 ft | 432 kts | 250° |
| 2026-05-05 10:13 | 51.75077 | 18.60278 | 30657 ft | 431 kts | 250° |
| 2026-05-05 10:13 | 51.74065 | 18.55731 | 30938 ft | 430 kts | 250° |
| 2026-05-05 10:13 | 51.73054 | 18.51206 | 31221 ft | 429 kts | 249° |
| 2026-05-05 10:13 | 51.72041 | 18.46692 | 31508 ft | 427 kts | 249° |
| 2026-05-05 10:14 | 51.71026 | 18.42189 | 31816 ft | 426 kts | 249° |
| 2026-05-05 10:14 | 51.70015 | 18.37701 | 32106 ft | 425 kts | 249° |
| 2026-05-05 10:14 | 51.69007 | 18.33236 | 32396 ft | 424 kts | 249° |
| 2026-05-05 10:14 | 51.67997 | 18.28771 | 32693 ft | 423 kts | 249° |
| 2026-05-05 10:15 | 51.66989 | 18.24319 | 32962 ft | 422 kts | 249° |
| 2026-05-05 10:15 | 51.65983 | 18.19883 | 33258 ft | 421 kts | 249° |
| 2026-05-05 10:15 | 51.64979 | 18.15466 | 33552 ft | 420 kts | 249° |
| 2026-05-05 10:15 | 51.63972 | 18.11056 | 33838 ft | 419 kts | 249° |
| 2026-05-05 10:16 | 51.62964 | 18.06657 | 34082 ft | 418 kts | 249° |
| 2026-05-05 10:16 | 51.61955 | 18.02271 | 34321 ft | 418 kts | 249° |
| 2026-05-05 10:16 | 51.60949 | 17.97893 | 34547 ft | 417 kts | 249° |
| 2026-05-05 10:16 | 51.59942 | 17.93521 | 34762 ft | 416 kts | 249° |
| 2026-05-05 10:17 | 51.58938 | 17.89154 | 34978 ft | 416 kts | 249° |
| 2026-05-05 10:17 | 51.57935 | 17.84793 | 35180 ft | 415 kts | 249° |
| 2026-05-05 10:17 | 51.56930 | 17.80435 | 35376 ft | 415 kts | 249° |
| 2026-05-05 10:17 | 51.55925 | 17.76100 | 35571 ft | 414 kts | 249° |
| 2026-05-05 10:18 | 51.54913 | 17.71746 | 35755 ft | 414 kts | 249° |
| 2026-05-05 10:18 | 51.53917 | 17.67458 | 35835 ft | 414 kts | 249° |
| 2026-05-05 10:18 | 51.51897 | 17.58801 | 35844 ft | 414 kts | 249° |
| 2026-05-05 10:19 | 51.49874 | 17.50157 | 35848 ft | 413 kts | 249° |
| 2026-05-05 10:19 | 51.47840 | 17.41522 | 35845 ft | 413 kts | 249° |
| 2026-05-05 10:20 | 51.45801 | 17.32899 | 35848 ft | 413 kts | 249° |
| 2026-05-05 10:20 | 51.43758 | 17.24286 | 35846 ft | 414 kts | 249° |
| 2026-05-05 10:21 | 51.41709 | 17.15665 | 35848 ft | 414 kts | 249° |
| 2026-05-05 10:21 | 51.39655 | 17.07058 | 35849 ft | 414 kts | 249° |
| 2026-05-05 10:22 | 51.37587 | 16.98464 | 35849 ft | 414 kts | 249° |
| 2026-05-05 10:22 | 51.35518 | 16.89878 | 35855 ft | 414 kts | 249° |
| 2026-05-05 10:23 | 51.33493 | 16.81515 | 35855 ft | 414 kts | 249° |
| 2026-05-05 10:23 | 51.31407 | 16.72948 | 35854 ft | 414 kts | 249° |
| 2026-05-05 10:24 | 51.29317 | 16.64353 | 35852 ft | 414 kts | 249° |
| 2026-05-05 10:24 | 51.27231 | 16.55814 | 35853 ft | 414 kts | 249° |
| 2026-05-05 10:25 | 51.25140 | 16.47303 | 35862 ft | 414 kts | 249° |
| 2026-05-05 10:25 | 51.23029 | 16.38751 | 35858 ft | 414 kts | 249° |
| 2026-05-05 10:26 | 51.20911 | 16.30211 | 35861 ft | 414 kts | 249° |
| 2026-05-05 10:26 | 51.18790 | 16.21672 | 35866 ft | 414 kts | 249° |
| 2026-05-05 10:27 | 51.16663 | 16.13139 | 35865 ft | 414 kts | 249° |
| 2026-05-05 10:27 | 51.14539 | 16.04656 | 35861 ft | 414 kts | 248° |
| 2026-05-05 10:28 | 51.12391 | 15.96125 | 35863 ft | 414 kts | 248° |
| 2026-05-05 10:28 | 51.10253 | 15.87653 | 35870 ft | 414 kts | 248° |
| 2026-05-05 10:29 | 51.08096 | 15.79150 | 35867 ft | 414 kts | 248° |
| 2026-05-05 10:29 | 51.05939 | 15.70668 | 35869 ft | 414 kts | 248° |
| 2026-05-05 10:30 | 51.03780 | 15.62220 | 35866 ft | 414 kts | 248° |
| 2026-05-05 10:30 | 51.01600 | 15.53719 | 35872 ft | 414 kts | 248° |
| 2026-05-05 10:31 | 50.99425 | 15.45265 | 35868 ft | 414 kts | 248° |
| 2026-05-05 10:31 | 50.97265 | 15.36876 | 35872 ft | 413 kts | 248° |
| 2026-05-05 10:32 | 50.95083 | 15.28396 | 35861 ft | 413 kts | 249° |
| 2026-05-05 10:32 | 50.93222 | 15.19814 | 35865 ft | 413 kts | 252° |
| 2026-05-05 10:33 | 50.91820 | 15.12543 | 35867 ft | 413 kts | 252° |
| 2026-05-05 10:33 | 50.89835 | 15.02423 | 35871 ft | 413 kts | 252° |
| 2026-05-05 10:34 | 50.88067 | 14.93784 | 35874 ft | 413 kts | 251° |
| 2026-05-05 10:34 | 50.86195 | 14.85226 | 35873 ft | 412 kts | 245° |
| 2026-05-05 10:35 | 50.84087 | 14.78435 | 35869 ft | 412 kts | 244° |
| 2026-05-05 10:35 | 50.81541 | 14.70281 | 35861 ft | 412 kts | 244° |
| 2026-05-05 10:36 | 50.79022 | 14.62199 | 35865 ft | 411 kts | 244° |
| 2026-05-05 10:36 | 50.76492 | 14.54105 | 35868 ft | 411 kts | 244° |
| 2026-05-05 10:37 | 50.73946 | 14.45992 | 35859 ft | 411 kts | 244° |
| 2026-05-05 10:37 | 50.71407 | 14.37917 | 35865 ft | 410 kts | 243° |
| 2026-05-05 10:38 | 50.68867 | 14.29894 | 35864 ft | 410 kts | 243° |
| 2026-05-05 10:38 | 50.66303 | 14.21846 | 35864 ft | 410 kts | 243° |
| 2026-05-05 10:39 | 50.63758 | 14.13861 | 35867 ft | 409 kts | 243° |
| 2026-05-05 10:39 | 50.61196 | 14.05848 | 35866 ft | 409 kts | 243° |
| 2026-05-05 10:40 | 50.58625 | 13.97843 | 35860 ft | 410 kts | 243° |
| 2026-05-05 10:40 | 50.56056 | 13.89849 | 35858 ft | 409 kts | 243° |
| 2026-05-05 10:41 | 50.53477 | 13.81858 | 35861 ft | 410 kts | 243° |
| 2026-05-05 10:41 | 50.50899 | 13.73877 | 35853 ft | 409 kts | 243° |
| 2026-05-05 10:42 | 50.47024 | 13.61942 | 35865 ft | 409 kts | 243° |
| 2026-05-05 10:43 | 50.44435 | 13.54005 | 35858 ft | 409 kts | 242° |
| 2026-05-05 10:43 | 50.41851 | 13.46130 | 35863 ft | 408 kts | 242° |
| 2026-05-05 10:44 | 50.39255 | 13.38208 | 35853 ft | 408 kts | 242° |
| 2026-05-05 10:44 | 50.36645 | 13.30302 | 35858 ft | 408 kts | 242° |
| 2026-05-05 10:45 | 50.34034 | 13.22403 | 35859 ft | 408 kts | 242° |
| 2026-05-05 10:45 | 50.31421 | 13.14520 | 35863 ft | 408 kts | 242° |
| 2026-05-05 10:46 | 50.28802 | 13.06644 | 35867 ft | 408 kts | 242° |
| 2026-05-05 10:46 | 50.26186 | 12.98775 | 35875 ft | 408 kts | 242° |
| 2026-05-05 10:47 | 50.23557 | 12.90920 | 35875 ft | 408 kts | 242° |
| 2026-05-05 10:47 | 50.20930 | 12.83080 | 35869 ft | 408 kts | 242° |
| 2026-05-05 10:48 | 50.18292 | 12.75242 | 35868 ft | 408 kts | 242° |
| 2026-05-05 10:48 | 50.15650 | 12.67422 | 35870 ft | 407 kts | 242° |
| 2026-05-05 10:49 | 50.12999 | 12.59614 | 35863 ft | 407 kts | 242° |
| 2026-05-05 10:49 | 50.10361 | 12.51860 | 35861 ft | 407 kts | 241° |
| 2026-05-05 10:50 | 50.07707 | 12.44071 | 35854 ft | 407 kts | 241° |
| 2026-05-05 10:50 | 50.05059 | 12.36284 | 35846 ft | 407 kts | 242° |
| 2026-05-05 10:51 | 50.02422 | 12.28474 | 35850 ft | 407 kts | 242° |
| 2026-05-05 10:51 | 49.99779 | 12.20684 | 35850 ft | 407 kts | 241° |
| 2026-05-05 10:52 | 49.97123 | 12.12911 | 35851 ft | 407 kts | 241° |
| 2026-05-05 10:52 | 49.94483 | 12.05197 | 35838 ft | 407 kts | 241° |
| 2026-05-05 10:53 | 49.91823 | 11.97435 | 35839 ft | 407 kts | 241° |
| 2026-05-05 10:53 | 49.89164 | 11.89691 | 35839 ft | 407 kts | 241° |
| 2026-05-05 10:54 | 49.86498 | 11.81961 | 35841 ft | 406 kts | 240° |
| 2026-05-05 10:54 | 49.83823 | 11.74245 | 35836 ft | 406 kts | 240° |
| 2026-05-05 10:55 | 49.81141 | 11.66536 | 35840 ft | 406 kts | 240° |
| 2026-05-05 10:55 | 49.78464 | 11.58838 | 35839 ft | 406 kts | 240° |
| 2026-05-05 10:56 | 49.75779 | 11.51140 | 35839 ft | 406 kts | 240° |
| 2026-05-05 10:56 | 49.73087 | 11.43462 | 35840 ft | 406 kts | 240° |
| 2026-05-05 10:57 | 49.70391 | 11.35799 | 35840 ft | 406 kts | 240° |
| 2026-05-05 10:57 | 49.67687 | 11.28137 | 35843 ft | 406 kts | 240° |
| 2026-05-05 10:58 | 49.64977 | 11.20481 | 35842 ft | 406 kts | 240° |
| 2026-05-05 10:58 | 49.62268 | 11.12829 | 35838 ft | 407 kts | 240° |
| 2026-05-05 10:59 | 49.59568 | 11.05225 | 35836 ft | 406 kts | 239° |
| 2026-05-05 10:59 | 49.56846 | 10.97595 | 35837 ft | 406 kts | 239° |
| 2026-05-05 11:00 | 49.54119 | 10.89982 | 35831 ft | 406 kts | 239° |
| 2026-05-05 11:00 | 49.51340 | 10.82404 | 35824 ft | 405 kts | 234° |
| 2026-05-05 11:01 | 49.47626 | 10.75921 | 35845 ft | 404 kts | 225° |
| 2026-05-05 11:01 | 49.43701 | 10.69753 | 35858 ft | 405 kts | 225° |
| 2026-05-05 11:02 | 49.39760 | 10.63518 | 35863 ft | 406 kts | 225° |
| 2026-05-05 11:02 | 49.35867 | 10.57223 | 35865 ft | 406 kts | 226° |
| 2026-05-05 11:03 | 49.31957 | 10.50952 | 35866 ft | 406 kts | 225° |
| 2026-05-05 11:03 | 49.27978 | 10.44867 | 35867 ft | 407 kts | 224° |
| 2026-05-05 11:04 | 49.23932 | 10.38773 | 35866 ft | 407 kts | 224° |
| 2026-05-05 11:04 | 49.19939 | 10.32668 | 35864 ft | 407 kts | 224° |
| 2026-05-05 11:05 | 49.15968 | 10.26494 | 35851 ft | 407 kts | 224° |
| 2026-05-05 11:05 | 49.12264 | 10.20025 | 35852 ft | 407 kts | 230° |
| 2026-05-05 11:06 | 49.08716 | 10.13259 | 35852 ft | 408 kts | 230° |
| 2026-05-05 11:06 | 49.05170 | 10.06533 | 35852 ft | 407 kts | 229° |
| 2026-05-05 11:07 | 49.01590 | 9.99798 | 35850 ft | 408 kts | 229° |
| 2026-05-05 11:07 | 48.98029 | 9.93120 | 35845 ft | 408 kts | 229° |
| 2026-05-05 11:08 | 48.94463 | 9.86425 | 35846 ft | 408 kts | 229° |
| 2026-05-05 11:08 | 48.90876 | 9.79694 | 35843 ft | 408 kts | 229° |
| 2026-05-05 11:09 | 48.87301 | 9.73002 | 35839 ft | 409 kts | 229° |
| 2026-05-05 11:09 | 48.83718 | 9.66314 | 35838 ft | 409 kts | 229° |
| 2026-05-05 11:10 | 48.80122 | 9.59632 | 35840 ft | 409 kts | 229° |
| 2026-05-05 11:10 | 48.76517 | 9.52963 | 35844 ft | 410 kts | 228° |
| 2026-05-05 11:11 | 48.72887 | 9.46260 | 35851 ft | 410 kts | 229° |
| 2026-05-05 11:11 | 48.69282 | 9.39582 | 35858 ft | 410 kts | 228° |
| 2026-05-05 11:12 | 48.65651 | 9.32899 | 35856 ft | 410 kts | 228° |
| 2026-05-05 11:12 | 48.61949 | 9.26334 | 35857 ft | 409 kts | 222° |
| 2026-05-05 11:13 | 48.57519 | 9.21078 | 35854 ft | 408 kts | 215° |
| 2026-05-05 11:13 | 48.52954 | 9.15981 | 35855 ft | 408 kts | 215° |
| 2026-05-05 11:14 | 48.48383 | 9.10877 | 35853 ft | 409 kts | 215° |
| 2026-05-05 11:14 | 48.43817 | 9.05769 | 35854 ft | 409 kts | 215° |
| 2026-05-05 11:15 | 48.39241 | 9.00675 | 35856 ft | 409 kts | 215° |
| 2026-05-05 11:15 | 48.34644 | 8.95589 | 35858 ft | 410 kts | 215° |
| 2026-05-05 11:16 | 48.30064 | 8.90532 | 35863 ft | 410 kts | 215° |
| 2026-05-05 11:16 | 48.25495 | 8.85453 | 35863 ft | 410 kts | 215° |
| 2026-05-05 11:17 | 48.20900 | 8.80346 | 35860 ft | 410 kts | 215° |
| 2026-05-05 11:17 | 48.16310 | 8.75248 | 35830 ft | 410 kts | 215° |
| 2026-05-05 11:17 | 48.14005 | 8.72711 | 34936 ft | 416 kts | 214° |
| 2026-05-05 11:18 | 48.11675 | 8.70175 | 33888 ft | 422 kts | 213° |
| 2026-05-05 11:18 | 48.09259 | 8.67560 | 32777 ft | 425 kts | 213° |
| 2026-05-05 11:18 | 48.06873 | 8.64980 | 31634 ft | 430 kts | 213° |
| 2026-05-05 11:18 | 48.04435 | 8.62341 | 30697 ft | 431 kts | 213° |
| 2026-05-05 11:19 | 48.01997 | 8.59702 | 29738 ft | 433 kts | 213° |
| 2026-05-05 11:19 | 47.99582 | 8.57130 | 28848 ft | 430 kts | 209° |
| 2026-05-05 11:19 | 47.96885 | 8.55341 | 28088 ft | 419 kts | 192° |
| 2026-05-05 11:19 | 47.94018 | 8.54910 | 27354 ft | 413 kts | 175° |
| 2026-05-05 11:20 | 47.91296 | 8.56023 | 26955 ft | 403 kts | 152° |
| 2026-05-05 11:20 | 47.89180 | 8.58633 | 26805 ft | 393 kts | 130° |
| 2026-05-05 11:20 | 47.87987 | 8.62233 | 26674 ft | 389 kts | 107° |
| 2026-05-05 11:20 | 47.87800 | 8.64873 | 26581 ft | 388 kts | 91° |
| 2026-05-05 11:21 | 47.88927 | 8.69904 | 26408 ft | 387 kts | 57° |
| 2026-05-05 11:21 | 47.90875 | 8.72606 | 26276 ft | 384 kts | 31° |
| 2026-05-05 11:21 | 47.92504 | 8.73608 | 26183 ft | 379 kts | 13° |
| 2026-05-05 11:21 | 47.95092 | 8.73716 | 26057 ft | 367 kts | 346° |
| 2026-05-05 11:22 | 47.97370 | 8.72220 | 25826 ft | 353 kts | 317° |
| 2026-05-05 11:22 | 47.98961 | 8.69580 | 25586 ft | 345 kts | 302° |
| 2026-05-05 11:22 | 48.00366 | 8.66670 | 25335 ft | 344 kts | 302° |
| 2026-05-05 11:22 | 48.01768 | 8.63766 | 25095 ft | 343 kts | 302° |
| 2026-05-05 11:23 | 48.03162 | 8.60878 | 24867 ft | 342 kts | 302° |
| 2026-05-05 11:23 | 48.04549 | 8.58003 | 24627 ft | 340 kts | 302° |
| 2026-05-05 11:23 | 48.05934 | 8.55135 | 24385 ft | 339 kts | 302° |
| 2026-05-05 11:23 | 48.07307 | 8.52290 | 24152 ft | 337 kts | 302° |
| 2026-05-05 11:24 | 48.08676 | 8.49456 | 23923 ft | 335 kts | 302° |
| 2026-05-05 11:24 | 48.10032 | 8.46633 | 23692 ft | 333 kts | 301° |
| 2026-05-05 11:24 | 48.11423 | 8.43870 | 23460 ft | 333 kts | 310° |
| 2026-05-05 11:24 | 48.13159 | 8.41587 | 23190 ft | 334 kts | 325° |
| 2026-05-05 11:25 | 48.15238 | 8.40050 | 22901 ft | 334 kts | 347° |
| 2026-05-05 11:25 | 48.17520 | 8.39981 | 22636 ft | 329 kts | 17° |
| 2026-05-05 11:25 | 48.19505 | 8.41529 | 22365 ft | 320 kts | 49° |
| 2026-05-05 11:25 | 48.20768 | 8.44187 | 22110 ft | 312 kts | 69° |
| 2026-05-05 11:26 | 48.21564 | 8.47189 | 21844 ft | 309 kts | 77° |
| 2026-05-05 11:26 | 48.22096 | 8.50277 | 21579 ft | 304 kts | 84° |
| 2026-05-05 11:26 | 48.22305 | 8.53402 | 21396 ft | 298 kts | 95° |
| 2026-05-05 11:26 | 48.22099 | 8.56459 | 21391 ft | 293 kts | 107° |
| 2026-05-05 11:27 | 48.21464 | 8.59332 | 21393 ft | 289 kts | 119° |
| 2026-05-05 11:27 | 48.20448 | 8.61902 | 21395 ft | 285 kts | 131° |
| 2026-05-05 11:27 | 48.19118 | 8.64077 | 21398 ft | 282 kts | 142° |
| 2026-05-05 11:27 | 48.17568 | 8.65758 | 21394 ft | 280 kts | 153° |
| 2026-05-05 11:28 | 48.15767 | 8.66987 | 21397 ft | 279 kts | 163° |
| 2026-05-05 11:28 | 48.13887 | 8.67644 | 21398 ft | 278 kts | 174° |
| 2026-05-05 11:28 | 48.11956 | 8.67739 | 21397 ft | 278 kts | 184° |
| 2026-05-05 11:28 | 48.10048 | 8.67259 | 21398 ft | 279 kts | 195° |
| 2026-05-05 11:29 | 48.08256 | 8.66238 | 21396 ft | 281 kts | 205° |
| 2026-05-05 11:29 | 48.06564 | 8.64771 | 21401 ft | 282 kts | 211° |
| 2026-05-05 11:29 | 48.04946 | 8.63104 | 21403 ft | 283 kts | 213° |
| 2026-05-05 11:29 | 48.03364 | 8.61357 | 21400 ft | 283 kts | 214° |
| 2026-05-05 11:30 | 48.01791 | 8.59588 | 21400 ft | 283 kts | 214° |
| 2026-05-05 11:30 | 48.00214 | 8.57825 | 21405 ft | 283 kts | 214° |
| 2026-05-05 11:30 | 47.98633 | 8.56080 | 21403 ft | 282 kts | 213° |
| 2026-05-05 11:30 | 47.97013 | 8.54379 | 21311 ft | 294 kts | 206° |
| 2026-05-05 11:31 | 47.95000 | 8.53402 | 21056 ft | 320 kts | 184° |
| 2026-05-05 11:31 | 47.92715 | 8.53802 | 20802 ft | 347 kts | 160° |
| 2026-05-05 11:31 | 47.90509 | 8.55431 | 20548 ft | 358 kts | 149° |
| 2026-05-05 11:31 | 47.88496 | 8.57568 | 20207 ft | 353 kts | 143° |
| 2026-05-05 11:32 | 47.86636 | 8.59942 | 19789 ft | 351 kts | 140° |
| 2026-05-05 11:32 | 47.84842 | 8.62380 | 19367 ft | 348 kts | 140° |
| 2026-05-05 11:32 | 47.83053 | 8.64797 | 18935 ft | 346 kts | 141° |
| 2026-05-05 11:32 | 47.81250 | 8.67151 | 18508 ft | 344 kts | 142° |
| 2026-05-05 11:33 | 47.79424 | 8.69447 | 18056 ft | 343 kts | 142° |
| 2026-05-05 11:33 | 47.77587 | 8.71697 | 17599 ft | 341 kts | 143° |
| 2026-05-05 11:33 | 47.75752 | 8.73912 | 17163 ft | 339 kts | 143° |
| 2026-05-05 11:33 | 47.73925 | 8.76107 | 16732 ft | 337 kts | 143° |
| 2026-05-05 11:34 | 47.72110 | 8.78291 | 16305 ft | 335 kts | 143° |
| 2026-05-05 11:34 | 47.70301 | 8.80473 | 15874 ft | 334 kts | 143° |
| 2026-05-05 11:34 | 47.68498 | 8.82644 | 15447 ft | 333 kts | 144° |
| 2026-05-05 11:34 | 47.66696 | 8.84812 | 15014 ft | 333 kts | 144° |
| 2026-05-05 11:35 | 47.64895 | 8.86975 | 14576 ft | 333 kts | 144° |
| 2026-05-05 11:35 | 47.63121 | 8.89180 | 14138 ft | 334 kts | 139° |
| 2026-05-05 11:35 | 47.61617 | 8.91831 | 13679 ft | 339 kts | 126° |
| 2026-05-05 11:35 | 47.60473 | 8.94898 | 13169 ft | 341 kts | 120° |
| 2026-05-05 11:36 | 47.59392 | 8.98019 | 12697 ft | 339 kts | 120° |
| 2026-05-05 11:36 | 47.58312 | 9.01118 | 12228 ft | 338 kts | 120° |
| 2026-05-05 11:36 | 47.57234 | 9.04198 | 11735 ft | 336 kts | 120° |
| 2026-05-05 11:36 | 47.56198 | 9.07294 | 11247 ft | 335 kts | 119° |
| 2026-05-05 11:37 | 47.55184 | 9.10380 | 10779 ft | 333 kts | 119° |
| 2026-05-05 11:37 | 47.54178 | 9.13449 | 10318 ft | 330 kts | 119° |
| 2026-05-05 11:37 | 47.53180 | 9.16497 | 9857 ft | 328 kts | 119° |
| 2026-05-05 11:37 | 47.52190 | 9.19521 | 9374 ft | 325 kts | 119° |
| 2026-05-05 11:38 | 47.51215 | 9.22482 | 8881 ft | 323 kts | 118° |
| 2026-05-05 11:38 | 47.50227 | 9.25448 | 8394 ft | 320 kts | 118° |
| 2026-05-05 11:38 | 47.49249 | 9.28356 | 7911 ft | 312 kts | 119° |
| 2026-05-05 11:38 | 47.48300 | 9.31160 | 7444 ft | 306 kts | 119° |
| 2026-05-05 11:39 | 47.47363 | 9.33915 | 6975 ft | 294 kts | 118° |
| 2026-05-05 11:39 | 47.46456 | 9.36554 | 6510 ft | 283 kts | 118° |
| 2026-05-05 11:39 | 47.45572 | 9.39102 | 6043 ft | 274 kts | 119° |
| 2026-05-05 11:39 | 47.44695 | 9.41578 | 5559 ft | 270 kts | 123° |
| 2026-05-05 11:40 | 47.43449 | 9.43628 | 5088 ft | 269 kts | 146° |
| 2026-05-05 11:40 | 47.41771 | 9.44721 | 4891 ft | 264 kts | 169° |
| 2026-05-05 11:40 | 47.39941 | 9.44734 | 4889 ft | 265 kts | 193° |
| 2026-05-05 11:40 | 47.38259 | 9.43647 | 4895 ft | 266 kts | 217° |
| 2026-05-05 11:41 | 47.37025 | 9.41637 | 4894 ft | 266 kts | 241° |
| 2026-05-05 11:41 | 47.36452 | 9.39054 | 4886 ft | 267 kts | 264° |
| 2026-05-05 11:41 | 47.36637 | 9.36342 | 4895 ft | 268 kts | 288° |
| 2026-05-05 11:41 | 47.37503 | 9.33913 | 4887 ft | 269 kts | 301° |
| 2026-05-05 11:42 | 47.38259 | 9.31405 | 4884 ft | 268 kts | 285° |
| 2026-05-05 11:42 | 47.38634 | 9.28712 | 4884 ft | 268 kts | 278° |
| 2026-05-05 11:42 | 47.38874 | 9.25988 | 4884 ft | 268 kts | 276° |
| 2026-05-05 11:42 | 47.39099 | 9.23258 | 4894 ft | 268 kts | 277° |
| 2026-05-05 11:43 | 47.39351 | 9.20535 | 4886 ft | 268 kts | 277° |
| 2026-05-05 11:43 | 47.39636 | 9.17822 | 4887 ft | 268 kts | 279° |
| 2026-05-05 11:43 | 47.39946 | 9.15117 | 4898 ft | 267 kts | 279° |
| 2026-05-05 11:43 | 47.40272 | 9.12422 | 4883 ft | 267 kts | 279° |
| 2026-05-05 11:44 | 47.40609 | 9.09735 | 4894 ft | 266 kts | 280° |
| 2026-05-05 11:44 | 47.40950 | 9.07044 | 4885 ft | 266 kts | 280° |
| 2026-05-05 11:44 | 47.41291 | 9.04357 | 4887 ft | 266 kts | 279° |
| 2026-05-05 11:44 | 47.41626 | 9.01707 | 4881 ft | 255 kts | 279° |
| 2026-05-05 11:45 | 47.41940 | 8.99222 | 4882 ft | 237 kts | 279° |
| 2026-05-05 11:45 | 47.42235 | 8.96884 | 4887 ft | 228 kts | 279° |
| 2026-05-05 11:45 | 47.42521 | 8.94590 | 4890 ft | 227 kts | 279° |
| 2026-05-05 11:45 | 47.42897 | 8.92327 | 4886 ft | 227 kts | 284° |
| 2026-05-05 11:46 | 47.43230 | 8.90049 | 4898 ft | 226 kts | 278° |
| 2026-05-05 11:46 | 47.43430 | 8.87747 | 4894 ft | 226 kts | 275° |
| 2026-05-05 11:46 | 47.43600 | 8.85436 | 4889 ft | 226 kts | 275° |
| 2026-05-05 11:46 | 47.43766 | 8.83160 | 4887 ft | 226 kts | 275° |
| 2026-05-05 11:47 | 47.43935 | 8.80854 | 4846 ft | 225 kts | 275° |
| 2026-05-05 11:47 | 47.44102 | 8.78589 | 4600 ft | 220 kts | 275° |
| 2026-05-05 11:47 | 47.44265 | 8.76354 | 4294 ft | 219 kts | 276° |
| 2026-05-05 11:47 | 47.44428 | 8.74130 | 3973 ft | 218 kts | 276° |
| 2026-05-05 11:48 | 47.44752 | 8.69668 | 3327 ft | 214 kts | 276° |
| 2026-05-05 11:48 | 47.44907 | 8.67529 | 3032 ft | 205 kts | 276° |
| 2026-05-05 11:48 | 47.45055 | 8.65483 | 2755 ft | 195 kts | 276° |
| 2026-05-05 11:49 | 47.45193 | 8.63563 | 2431 ft | 179 kts | 276° |
| 2026-05-05 11:49 | 47.45318 | 8.61819 | 2160 ft | 164 kts | 276° |
| 2026-05-05 11:49 | 47.45434 | 8.60204 | 1943 ft | 151 kts | 276° |
| 2026-05-05 11:49 | 47.45541 | 8.58701 | 1713 ft | 144 kts | 275° |
| 2026-05-05 11:50 | 47.45648 | 8.57251 | 1521 ft | 141 kts | 275° |
| 2026-05-05 11:50 | 47.45754 | 8.55820 | 1440 ft | 138 kts | 273° |
| 2026-05-05 11:50 | 47.45831 | 8.54533 | 1400 ft | 110 kts | 274° |
| 2026-05-05 11:50 | 47.45892 | 8.53721 | 1403 ft | 38 kts | 276° |
| 2026-05-05 11:51 | 47.45917 | 8.53553 | 1402 ft | 8 kts | 20° |
| 2026-05-05 11:51 | 47.45914 | 8.53615 | 1399 ft | 7 kts | 117° |
| 2026-05-05 11:51 | 47.45896 | 8.53700 | 1403 ft | 11 kts | 97° |
| 2026-05-05 11:51 | 47.45886 | 8.53836 | 1396 ft | 16 kts | 96° |
| 2026-05-05 11:52 | 47.45874 | 8.54023 | 1402 ft | 20 kts | 94° |
| 2026-05-05 11:52 | 47.45857 | 8.54241 | 1402 ft | 24 kts | 98° |
| 2026-05-05 11:52 | 47.45837 | 8.54505 | 1403 ft | 27 kts | 96° |
| 2026-05-05 11:52 | 47.45823 | 8.54746 | 1398 ft | 23 kts | 92° |
| 2026-05-05 11:53 | 47.45811 | 8.54993 | 1396 ft | 21 kts | 94° |
| 2026-05-05 11:53 | 47.45883 | 8.55089 | 1396 ft | 14 kts | 18° |
| 2026-05-05 11:53 | 47.45963 | 8.55159 | 1399 ft | 13 kts | 35° |
| 2026-05-05 11:53 | 47.45981 | 8.55262 | 1394 ft | 9 kts | 98° |
| 2026-05-05 11:54 | 47.45974 | 8.55344 | 1397 ft | 7 kts | 97° |
| 2026-05-05 11:54 | 47.45972 | 8.55398 | 1395 ft | 4 kts | 93° |
| 2026-05-05 11:54 | 47.45970 | 8.55430 | 1396 ft | 2 kts | 95° |
| 2026-05-05 11:54 | 47.45969 | 8.55445 | 1396 ft | 3 kts | 95° |
| 2026-05-05 11:55 | 47.45965 | 8.55497 | 1404 ft | 7 kts | 97° |
| 2026-05-05 11:55 | 47.45960 | 8.55559 | 1401 ft | 5 kts | 97° |
| 2026-05-05 11:55 | 47.45956 | 8.55601 | 1397 ft | 3 kts | 96° |
| 2026-05-05 11:55 | 47.45955 | 8.55622 | 1397 ft | 1 kts | 96° |
| 2026-05-05 11:56 | 47.45954 | 8.55625 | 1397 ft | 0 kts | 96° |
| 2026-05-05 11:56 | 47.45953 | 8.55650 | 1397 ft | 6 kts | 96° |
| 2026-05-05 11:56 | 47.45972 | 8.55722 | 1402 ft | 11 kts | 24° |
| 2026-05-05 11:56 | 47.46029 | 8.55735 | 1404 ft | 0 kts | 6° |
| 2026-05-05 11:57 | 47.46038 | 8.55737 | 1402 ft | 0 kts | 6° |
| 2026-05-05 11:57 | 47.46044 | 8.55738 | 1400 ft | 0 kts | 7° |